Terminal Aerodrome Forecast
Issued by NWS Wilmington, OH

Current Version | Previous Version | Text Only | Print | Product List | Glossary Off
Versions: 1 2 3 4 5 6 7 8 9 10 11 12 13 14 15 16 17 18 19 20 21 22 23 24 25 26 27 28 29

000
FTUS41 KILN 272300
TAFCVG
TAF
KCVG 272335Z 2800/2906 30015G24KT P6SM VCSH BKN025 OVC035
     FM280300 30012G20KT P6SM BKN035
     FM280600 29012KT P6SM SCT035
     FM281400 32012KT P6SM FEW040
     FM282200 27008KT P6SM SCT250=

USA.gov is the U.S. government's official web portal to all federal, state and local government web resources and services.